Dodge City Regional Airport Dodge City US
ICAO: KDDC
IATA: DDC
Category: Medium
Scheduled Services: Yes

Elevation: 2594 ft
TransAlt. 18000 ft.

Airport Communications:
ASOS:118.525
KANSAS CITY CNTR:125.2
WICHITA RDO:122.35
CTAF/UNICOM:122.7

KDDC Zoom In..

If you have problems with the map follow the link
https://www.worldairports.se/pages/airport.php?
ICAO=KDDC

Runways:

(A) RW 02 length 4649 ft width 100 ft
---- / hdg 24

(B) RW 14 length 6899 ft width 100 ft
ILS 111.70 / hdg 146

(C) RW 20 length 4649 ft width 100 ft
---- / hdg 204

(D) RW 32 length 6899 ft width 100 ft
---- / hdg 326

Location; KDDC
Day. 22 / Time. 11.02 Zulu
* Altimeter: 29.78
* Temperature: 03° c. 37.4°f.
* Wind from: 180° Speed 14 kn.
Dewpoint: 02° c.
Visibility: 3 Statute Miles.
Clouds: Overcast 200 ft.
Conditions: Mist.

KDDC 221102Z AUTO 18014KT 3SM BR OVC002 03/02 A2978 RMK AO2 RAE1056 P0000 T00280017 $


Wind From 180°
Speed 14 kn.

 
 
jpsmedia worldairports.se 2020   terms of use